Data for 03/07/2018

Time Sea-Level Adjusted Pressure Absolute Pressure Temperature Relative Humidity Dew Point   
(mb) (inHg) (mb) (inHg) (C) (F) (%) (C) (F)
00:05 1023 30.21 852 25.16 -5.5 22.1 53 -13.6 7.6
00:10 1023 30.21 852 25.16 -5.4 22.2 55 -13.1 8.4
00:15 1023 30.21 852 25.16 -5.5 22.1 54 -13.3 8.1
00:20 1023 30.21 852 25.16 -4.5 23.9 52 -12.8 8.9
00:25 1023 30.21 852 25.16 -4.1 24.6 49 -13.4 7.9
00:30 1023 30.21 852 25.16 -3.9 25 48 -13.3 8.1
00:35 1023 30.21 852 25.16 -3.9 25 48 -13.4 8
00:40 1023 30.21 852 25.16 -4.3 24.2 51 -12.9 8.7
00:45 1023 30.21 852 25.16 -5.4 22.3 55 -13 8.6
00:50 1023 30.21 852 25.16 -6.2 20.8 58 -13.1 8.3
00:55 1023 30.21 853 25.19 -6.8 19.7 58 -13.7 7.4
01:00 1023 30.21 853 25.19 -7.3 19 59 -14.1 6.7
01:05 1023 30.21 853 25.19 -7.1 19.3 57 -14.2 6.5
01:10 1023 30.21 853 25.19 -6.7 20 55 -14.3 6.3
01:15 1023 30.21 853 25.19 -6.2 20.8 55 -13.9 7
01:20 1023 30.21 853 25.19 -6 21.1 55 -13.6 7.5
01:25 1023 30.21 853 25.19 -6.5 20.3 56 -13.9 7.1
01:30 1023 30.21 853 25.19 -6.6 20.1 58 -13.6 7.5
01:35 1023 30.21 853 25.19 -6.5 20.3 57 -13.6 7.6
01:40 1023 30.21 853 25.19 -6.4 20.4 58 -13.5 7.7
01:45 1023 30.21 853 25.19 -6.5 20.3 58 -13.5 7.7
01:50 1023 30.21 853 25.19 -6.4 20.6 57 -13.5 7.7
01:55 1023 30.21 853 25.19 -6.3 20.7 57 -13.4 7.8
02:00 1023 30.21 852 25.16 -6.3 20.6 56 -13.8 7.2
02:05 1023 30.21 852 25.16 -6.2 20.9 55 -13.9 7
02:10 1023 30.21 853 25.19 -5.9 21.3 54 -13.8 7.1
02:15 1023 30.21 852 25.16 -5.4 22.3 52 -13.8 7.2
02:20 1023 30.21 852 25.16 -5.4 22.3 54 -13.2 8.2
02:25 1023 30.21 852 25.16 -5.5 22.1 53 -13.6 7.5
02:30 1023 30.21 852 25.16 -5.6 21.9 54 -13.4 7.9
02:35 1023 30.21 852 25.16 -6.1 21 57 -13.3 8
02:40 1023 30.21 852 25.16 -6.3 20.7 56 -13.6 7.5
02:45 1023 30.21 852 25.16 -6.6 20.1 59 -13.4 7.8
02:50 1023 30.21 852 25.16 -6.8 19.7 59 -13.5 7.6
02:55 1023 30.21 852 25.16 -6.7 19.9 58 -13.6 7.5
03:00 1023 30.21 852 25.16 -7.1 19.2 58 -14 6.8
03:05 1023 30.21 852 25.16 -7 19.4 59 -13.7 7.3
03:10 1023 30.21 852 25.16 -6.7 20 59 -13.4 7.9
03:15 1023 30.21 852 25.16 -6.8 19.8 58 -13.7 7.4
03:20 1023 30.21 852 25.16 -6.1 21.1 55 -13.7 7.3
03:25 1023 30.21 852 25.16 -5.6 21.9 53 -13.8 7.1
03:30 1023 30.21 852 25.16 -5.4 22.2 52 -13.7 7.3
03:35 1023 30.21 852 25.16 -5.5 22 53 -13.8 7.2
03:40 1023 30.21 852 25.16 -5.7 21.7 54 -13.6 7.5
03:45 1023 30.21 852 25.16 -5.6 22 54 -13.5 7.6
03:50 1023 30.21 852 25.16 -5.8 21.5 55 -13.4 7.9
03:55 1023 30.21 852 25.16 -6.2 20.9 58 -13.2 8.2
04:00 1023 30.21 852 25.16 -6.7 19.9 60 -13.2 8.3
04:05 1023 30.21 852 25.16 -7.1 19.3 61 -13.4 7.9
04:10 1023 30.21 852 25.16 -7.3 18.8 62 -13.5 7.7
04:15 1023 30.21 852 25.16 -7.4 18.6 63 -13.3 8
04:20 1023 30.21 852 25.16 -7.8 18 63 -13.6 7.6
04:25 1023 30.21 852 25.16 -7.4 18.8 65 -12.8 8.9
04:30 1023 30.21 852 25.16 -6.8 19.7 61 -13.2 8.2
04:35 1023 30.21 852 25.16 -6.9 19.6 59 -13.5 7.7
04:40 1023 30.21 852 25.16 -6.7 20 58 -13.6 7.6
04:45 1023 30.21 852 25.16 -6.5 20.3 58 -13.5 7.7
04:50 1023 30.21 852 25.16 -6.7 19.9 60 -13.2 8.3
04:55 1023 30.21 852 25.16 -7 19.4 61 -13.4 7.9
05:00 1023 30.21 852 25.16 -6.8 19.7 58 -13.8 7.2
05:05 1023 30.21 852 25.16 -6.9 19.6 60 -13.5 7.8
05:10 1023 30.21 852 25.16 -7.1 19.2 60 -13.5 7.7
05:15 1023 30.21 852 25.16 -7.2 19 61 -13.5 7.7
05:20 1023 30.21 852 25.16 -7.7 18.2 62 -13.7 7.3
05:25 1023 30.21 852 25.16 -7.4 18.7 60 -13.8 7.2
05:30 1023 30.21 852 25.16 -6.9 19.6 60 -13.3 8
05:35 1023 30.21 852 25.16 -6.9 19.6 58 -13.8 7.2
05:40 1023 30.21 852 25.16 -6.7 19.9 58 -13.7 7.4
05:45 1023 30.21 852 25.16 -6.5 20.3 56 -13.9 7
05:50 1023 30.21 852 25.16 -6.5 20.2 58 -13.6 7.6
05:55 1023 30.21 852 25.16 -6.9 19.5 58 -13.9 7
06:00 1023 30.21 852 25.16 -7.2 19 58 -14.1 6.7
06:05 1023 30.21 852 25.16 -7.4 18.7 59 -14.2 6.4
06:10 1023 30.21 852 25.16 -7.6 18.4 59 -14.2 6.5
06:15 1023 30.21 852 25.16 -7.6 18.3 59 -14.3 6.3
06:20 1023 30.21 852 25.16 -7.4 18.7 58 -14.3 6.3
06:25 1023 30.21 852 25.16 -7.2 19 58 -14.1 6.6
06:30 1022 30.18 852 25.16 -6.7 20 57 -13.9 7
06:35 1022 30.18 852 25.16 -6.7 20 58 -13.5 7.6
06:40 1022 30.18 852 25.16 -6.6 20.1 57 -13.9 7.1
06:45 1022 30.18 852 25.16 -6.3 20.7 57 -13.4 7.9
06:50 1022 30.18 852 25.16 -6.6 20.1 55 -14.1 6.6
06:55 1022 30.18 851 25.13 -6.7 20 56 -14 6.7
07:00 1022 30.18 852 25.16 -7 19.4 57 -14.1 6.6
07:05 1022 30.18 852 25.16 -7.3 18.8 60 -13.8 7.1
07:10 1022 30.18 852 25.16 -7.6 18.4 59 -14.2 6.5
07:15 1022 30.18 852 25.16 -7.2 19 57 -14.3 6.3
07:20 1022 30.18 852 25.16 -6.9 19.6 56 -14.2 6.4
07:25 1022 30.18 852 25.16 -6.5 20.2 56 -13.9 6.9
07:30 1022 30.18 852 25.16 -6.4 20.4 54 -14.2 6.4
07:35 1022 30.18 852 25.16 -5.7 21.7 52 -14.2 6.4
07:40 1022 30.18 852 25.16 -5.8 21.6 52 -14.1 6.6
07:45 1022 30.18 852 25.16 -5.5 22.1 51 -14.2 6.4
07:50 1022 30.18 852 25.16 -5.4 22.3 50 -14.2 6.4
07:55 1022 30.18 852 25.16 -5.4 22.3 50 -14.2 6.5
08:00 1022 30.18 852 25.16 -5.1 22.9 49 -14.2 6.5
08:05 1023 30.21 852 25.16 -4.7 23.5 49 -13.8 7.1
08:10 1023 30.21 852 25.16 -4.2 24.4 47 -14.1 6.7
08:15 1022 30.18 852 25.16 -3.7 25.4 45 -14.1 6.7
08:20 1022 30.18 852 25.16 -3.4 25.9 44 -14 6.7
08:25 1022 30.18 852 25.16 -2.8 27 42 -14 6.8
08:30 1022 30.18 852 25.16 -2.3 27.8 42 -13.4 7.8
08:35 1022 30.18 852 25.16 -1.8 28.7 40 -13.8 7.1
08:40 1022 30.18 852 25.16 -2 28.5 42 -13.2 8.2
08:45 1022 30.18 852 25.16 -1.9 28.5 41 -13.6 7.6
08:50 1022 30.18 852 25.16 -2.4 27.8 42 -13.7 7.3
08:55 1022 30.18 852 25.16 -2.4 27.6 42 -13.6 7.6
09:00 1022 30.18 852 25.16 -2.5 27.5 42 -13.6 7.5
09:05 1023 30.21 852 25.16 -2.6 27.3 43 -13.6 7.5
09:10 1023 30.21 852 25.16 -2.2 28.1 42 -13.3 8
09:15 1023 30.21 852 25.16 -2.1 28.1 42 -13.5 7.7
09:20 1023 30.21 852 25.16 -1.6 29.1 40 -13.6 7.6
09:25 1023 30.21 852 25.16 -1.5 29.3 38 -14.1 6.6
09:30 1023 30.21 852 25.16 -1.4 29.4 39 -13.8 7.2
09:35 1022 30.18 852 25.16 -0.7 30.8 38 -13.5 7.7
09:40 1022 30.18 852 25.16 -0.1 31.8 36 -13.4 7.8
09:45 1022 30.18 852 25.16 0.5 32.9 33 -13.9 6.9
09:50 1022 30.18 852 25.16 0.5 33 35 -13.1 8.3
09:55 1022 30.18 852 25.16 1.2 34.2 32 -13.6 7.5
10:00 1022 30.18 851 25.13 1.4 34.5 33 -13.2 8.3
10:05 1022 30.18 851 25.13 1.8 35.3 32 -13.2 8.2
10:10 1022 30.18 851 25.13 1.8 35.3 34 -12.4 9.7
10:15 1022 30.18 851 25.13 2.4 36.3 32 -12.7 9.2
10:20 1022 30.18 851 25.13 2.2 36 33 -12.6 9.3
10:25 1022 30.18 851 25.13 1.5 34.7 36 -12.2 10
10:30 1022 30.18 851 25.13 1.3 34.3 35 -12.6 9.3
10:35 1022 30.18 851 25.13 1.2 34.2 35 -12.8 9
10:40 1022 30.18 851 25.13 1.2 34.1 35 -12.6 9.4
10:45 1022 30.18 851 25.13 0.9 33.7 37 -12.3 9.9
10:50 1022 30.18 851 25.13 1.3 34.3 35 -12.7 9.2
10:55 1022 30.18 851 25.13 1.5 34.7 37 -11.6 11.1
11:00 1022 30.18 851 25.13 1.9 35.5 33 -12.6 9.3
11:05 1022 30.18 851 25.13 1.5 34.7 36 -12.2 10.1
11:10 1022 30.18 851 25.13 1.1 34 34 -13 8.6
11:15 1022 30.18 851 25.13 1 33.9 35 -12.8 9
11:20 1022 30.18 851 25.13 1.7 35.1 32 -13.3 8.1
11:25 1022 30.18 851 25.13 2.2 35.9 34 -12.3 9.9
11:30 1022 30.18 851 25.13 2.1 35.8 33 -12.4 9.7
11:35 1022 30.18 851 25.13 2 35.6 34 -12.4 9.7
11:40 1021 30.15 851 25.13 2.4 36.4 34 -12 10.4
11:45 1021 30.15 851 25.13 3.1 37.6 33 -11.8 10.8
11:50 1021 30.15 851 25.13 3.5 38.2 34 -11.1 12
11:55 1021 30.15 851 25.13 3.5 38.4 34 -10.8 12.6
12:00 1021 30.15 851 25.13 4.2 39.6 32 -11 12.2
12:05 1021 30.15 850 25.1 4.7 40.4 32 -10.6 13
12:10 1021 30.15 850 25.1 4.2 39.6 32 -11.1 12
12:15 1021 30.15 850 25.1 3.7 38.6 34 -10.8 12.5
12:20 1021 30.15 850 25.1 4.4 39.9 33 -10.7 12.8
12:25 1021 30.15 850 25.1 5.1 41.2 30 -11 12.1
12:30 1021 30.15 850 25.1 5.5 42 31 -10.5 13.1
12:35 1021 30.15 850 25.1 5.5 41.9 28 -11.6 11.2
12:40 1021 30.15 850 25.1 5.2 41.4 31 -10.8 12.6
12:45 1021 30.15 850 25.1 5.1 41.1 30 -11 12.2
12:50 1021 30.15 850 25.1 5.1 41.3 29 -11.3 11.6
12:55 1021 30.15 850 25.1 4.4 40 32 -10.8 12.5
13:00 1020 30.12 850 25.1 3.7 38.6 34 -11 12.3
13:05 1020 30.12 849 25.07 3.4 38.2 33 -11.3 11.6
13:10 1020 30.12 849 25.07 4.3 39.7 33 -10.6 12.9
13:15 1020 30.12 849 25.07 5 40.9 30 -11.1 12.1
13:20 1020 30.12 849 25.07 5.4 41.7 30 -10.8 12.6
13:25 1020 30.12 849 25.07 3.5 38.3 34 -10.9 12.3
13:30 1020 30.12 849 25.07 3.9 39.1 32 -11.4 11.5
13:35 1020 30.12 849 25.07 4.4 39.8 32 -10.9 12.4
13:40 1020 30.12 849 25.07 5.3 41.6 31 -10.7 12.8
13:45 1020 30.12 849 25.07 5.8 42.5 31 -9.9 14.1
13:50 1020 30.12 849 25.07 6.1 42.9 30 -10.1 13.8
13:55 1020 30.12 849 25.07 6.5 43.8 29 -10.1 13.9
14:00 1020 30.12 849 25.07 5.7 42.2 31 -10.1 13.8
14:05 1020 30.12 849 25.07 5.1 41.1 33 -9.8 14.3
14:10 1019 30.09 849 25.07 5 41.1 32 -10.4 13.2
14:15 1019 30.09 849 25.07 5.5 41.8 31 -10.4 13.3
14:20 1019 30.09 849 25.07 5 41.1 32 -10.3 13.4
14:25 1019 30.09 849 25.07 5 41 31 -10.8 12.6
14:30 1019 30.09 849 25.07 5.3 41.5 31 -10.5 13.1
14:35 1019 30.09 848 25.04 5.3 41.5 31 -10.6 13
14:40 1019 30.09 848 25.04 5.3 41.5 32 -10.3 13.4
14:45 1019 30.09 848 25.04 5.4 41.7 33 -9.7 14.5
14:50 1019 30.09 848 25.04 5.8 42.5 29 -10.8 12.6
14:55 1019 30.09 848 25.04 5.9 42.7 31 -10 14
15:00 1019 30.09 848 25.04 5.9 42.7 29 -11 12.2
15:05 1019 30.09 848 25.04 6 42.7 28 -11.3 11.7
15:10 1019 30.09 848 25.04 6.1 42.9 29 -10.5 13
15:15 1019 30.09 848 25.04 6.3 43.3 28 -11 12.2
15:20 1019 30.09 848 25.04 6.5 43.6 28 -10.8 12.6
15:25 1019 30.09 848 25.04 6.3 43.3 29 -10.5 13.1
15:30 1019 30.09 848 25.04 6.9 44.5 28 -10.3 13.5
15:35 1019 30.09 848 25.04 7 44.5 26 -11.1 11.9
15:40 1018 30.06 848 25.04 7 44.5 27 -10.9 12.4
15:45 1018 30.06 848 25.04 6.8 44.3 28 -10.2 13.6
15:50 1018 30.06 848 25.04 7 44.6 27 -10.8 12.6
15:55 1018 30.06 848 25.04 7.3 45.1 27 -10.4 13.3
16:00 1018 30.06 848 25.04 7.1 44.9 28 -10.2 13.6
16:05 1018 30.06 847 25.01 7.1 44.9 27 -10.6 12.9
16:10 1018 30.06 847 25.01 7.4 45.2 27 -10.4 13.2
16:15 1018 30.06 847 25.01 7.8 46.1 27 -9.8 14.3
16:20 1018 30.06 847 25.01 7.8 46 28 -9.6 14.7
16:25 1018 30.06 847 25.01 7.7 45.9 28 -9.9 14.3
16:30 1018 30.06 847 25.01 7.5 45.4 29 -9.6 14.8
16:35 1018 30.06 847 25.01 7 44.5 29 -10.1 13.8
16:40 1018 30.06 847 25.01 6.5 43.7 29 -10.4 13.3
16:45 1018 30.06 847 25.01 6.7 44.1 28 -10.5 13
16:50 1018 30.06 847 25.01 6.8 44.2 28 -10.7 12.7
16:55 1018 30.06 847 25.01 6.8 44.2 28 -10.6 13
17:00 1018 30.06 847 25.01 6.3 43.3 28 -10.9 12.4
17:05 1018 30.06 847 25.01 5.9 42.7 30 -10.5 13.1
17:10 1018 30.06 847 25.01 5.9 42.7 29 -10.7 12.8
17:15 1018 30.06 847 25.01 5.9 42.6 30 -10.6 12.8
17:20 1018 30.06 847 25.01 6.1 42.9 29 -10.8 12.6
17:25 1018 30.06 847 25.01 5.9 42.7 29 -10.9 12.3
17:30 1018 30.06 847 25.01 5.4 41.7 31 -10.3 13.4
17:35 1018 30.06 847 25.01 5.1 41.2 33 -9.8 14.4
17:40 1018 30.06 847 25.01 4.8 40.7 37 -8.7 16.4
17:45 1018 30.06 847 25.01 4.4 40 39 -8.3 17.1
17:50 1018 30.06 847 25.01 4.3 39.7 39 -8.5 16.7
17:55 1018 30.06 847 25.01 4 39.3 40 -8.3 17.1
18:00 1018 30.06 847 25.01 3.7 38.6 40 -8.7 16.4
18:05 1018 30.06 847 25.01 3.4 38 42 -8.5 16.7
18:10 1018 30.06 847 25.01 3.1 37.7 41 -8.8 16.1
18:15 1018 30.06 847 25.01 3.1 37.5 39 -9.7 14.5
18:20 1018 30.06 847 25.01 2.9 37.3 38 -10.1 13.9
18:25 1018 30.06 847 25.01 2.7 36.9 36 -10.9 12.4
18:30 1018 30.06 847 25.01 2.5 36.6 39 -10.1 13.8
18:35 1018 30.06 847 25.01 2.4 36.2 38 -10.6 12.9
18:40 1018 30.06 847 25.01 2.3 36.1 38 -10.7 12.7
18:45 1018 30.06 847 25.01 2.3 36.1 36 -11.4 11.5
18:50 1018 30.06 847 25.01 2.3 36.2 37 -10.8 12.5
18:55 1018 30.06 847 25.01 2.1 35.8 38 -10.7 12.7
19:00 1018 30.06 847 25.01 2.1 35.7 37 -11.3 11.7
19:05 1018 30.06 847 25.01 2 35.6 38 -11.1 12.1
19:10 1018 30.06 847 25.01 1.9 35.4 36 -11.5 11.2
19:15 1018 30.06 847 25.01 1.8 35.3 39 -10.8 12.5
19:20 1018 30.06 847 25.01 1.6 34.9 36 -11.8 10.7
19:25 1018 30.06 847 25.01 1.8 35.2 36 -11.9 10.6
19:30 1018 30.06 847 25.01 1.8 35.3 36 -11.9 10.6
19:35 1018 30.06 847 25.01 1.5 34.8 39 -11 12.2
19:40 1018 30.06 847 25.01 1.5 34.7 36 -12.1 10.3
19:45 1018 30.06 847 25.01 2 35.6 34 -12.1 10.2
19:50 1018 30.06 847 25.01 1.9 35.4 38 -11.1 12
19:55 1018 30.06 847 25.01 1.6 34.8 37 -11.7 10.9
20:00 1018 30.06 847 25.01 1.6 34.8 37 -11.7 11
20:05 1018 30.06 847 25.01 1.4 34.6 38 -11.5 11.3
20:10 1018 30.06 847 25.01 1.2 34.2 38 -11.6 11.2
20:15 1017 30.03 847 25.01 1.3 34.3 38 -11.7 11
20:20 1017 30.03 847 25.01 1.3 34.4 37 -11.9 10.6
20:25 1017 30.03 847 25.01 1.5 34.6 37 -11.6 11.1
20:30 1017 30.03 847 25.01 1.4 34.5 38 -11.4 11.6
20:35 1017 30.03 847 25.01 1.4 34.6 38 -11.3 11.7
20:40 1017 30.03 847 25.01 1.4 34.6 40 -10.8 12.6
20:45 1017 30.03 847 25.01 1.2 34.2 41 -10.6 13
20:50 1017 30.03 847 25.01 1.1 34 42 -10.5 13.1
20:55 1017 30.03 847 25.01 1.1 34 41 -10.7 12.8
21:00 1017 30.03 847 25.01 1.2 34.1 41 -10.6 13
21:05 1017 30.03 847 25.01 1.1 34.1 42 -10.5 13
21:10 1017 30.03 847 25.01 1.2 34.2 41 -10.6 13
21:15 1017 30.03 847 25.01 1.2 34.2 41 -10.6 13
21:20 1017 30.03 847 25.01 1.2 34.1 42 -10.5 13.2
21:25 1017 30.03 847 25.01 0.9 33.7 43 -10.4 13.3
21:30 1017 30.03 847 25.01 0.8 33.5 42 -10.7 12.7
21:35 1018 30.06 847 25.01 1 33.8 41 -10.9 12.4
21:40 1018 30.06 847 25.01 1.2 34.1 40 -10.9 12.3
21:45 1018 30.06 847 25.01 1.4 34.5 41 -10.4 13.3
21:50 1018 30.06 847 25.01 0.9 33.6 44 -9.9 14.2
21:55 1018 30.06 847 25.01 0.6 33 46 -9.8 14.3
22:00 1018 30.06 847 25.01 0.3 32.5 47 -9.7 14.5
22:05 1018 30.06 847 25.01 0.2 32.4 48 -9.6 14.6
22:10 1018 30.06 847 25.01 0 32 48 -9.8 14.3
22:15 1018 30.06 847 25.01 0.1 32.2 47 -9.8 14.4
22:20 1018 30.06 847 25.01 0.2 32.3 48 -9.6 14.8
22:25 1018 30.06 847 25.01 0.3 32.6 47 -9.9 14.3
22:30 1018 30.06 847 25.01 0.3 32.5 46 -10.1 13.8
22:35 1018 30.06 847 25.01 0.4 32.8 45 -10 13.9
22:40 1018 30.06 847 25.01 0.4 32.7 44 -10.4 13.2
22:45 1018 30.06 847 25.01 0.8 33.4 43 -10.4 13.4
22:50 1018 30.06 847 25.01 0.6 33 45 -10 14
22:55 1017 30.03 847 25.01 0.3 32.5 46 -10.1 13.9
23:00 1017 30.03 847 25.01 0.1 32.1 47 -10 14
23:05 1017 30.03 847 25.01 0 32 47 -9.9 14.2
23:10 1017 30.03 847 25.01 0 32.1 47 -10 14.1
23:15 1017 30.03 847 25.01 0.4 32.7 47 -9.6 14.7
23:20 1017 30.03 846 24.98 0.3 32.6 47 -9.8 14.3
23:25 1017 30.03 846 24.98 0.5 32.9 47 -9.6 14.8
23:30 1017 30.03 846 24.98 0.5 33 47 -9.4 15.1
23:35 1017 30.03 846 24.98 0.6 33 47 -9.5 14.9
23:40 1017 30.03 846 24.98 0.7 33.2 46 -9.7 14.5
23:45 1017 30.03 846 24.98 0.8 33.5 45 -9.8 14.3
23:50 1017 30.03 846 24.98 0.9 33.7 45 -9.8 14.3
23:55 1017 30.03 846 24.98 0.7 33.2 47 -9.5 15
24:00 1017 30.03 846 24.98 0.7 33.2 46 -9.8 14.3